This is the latest recevied weather packets stored in our database for station/object M8FSI-13. If no packets are shown the sender has not sent any weather packets the latest 10 day(s).
| Time | Temp. | Humidity | Pressure | Rain* | Wind** | Luminosity | Snow |
|---|---|---|---|---|---|---|---|
| 1777793720 | 12.78° C | 87% | 1011.3 hPa | 0 mm | - | - | - |
| 1777792520 | 12.22° C | 88% | 1011.1 hPa | 0 mm | - | - | - |
| 1777785921 | 12.22° C | 91% | 1010.5 hPa | 0 mm | - | - | - |
| 1777783534 | 12.22° C | 91% | 1010.5 hPa | 0 mm | - | - | - |
| 1777782320 | 12.22° C | 91% | 1010.6 hPa | 0 mm | - | - | - |
| 1777781120 | 12.22° C | 91% | 1010.5 hPa | 0 mm | - | - | - |
| 1777774520 | 12.22° C | 93% | 1010.7 hPa | 0 mm | - | - | - |
| 1777773919 | 12.22° C | 93% | 1010.8 hPa | 0 mm | - | - | - |
| 1777768534 | 12.78° C | 93% | 1011.5 hPa | 0 mm | - | - | - |
| 1777767355 | 12.22° C | 93% | 1011.6 hPa | 0 mm | - | - | - |
| 1777760119 | 12.22° C | 91% | 1011.9 hPa | 0 mm | - | - | - |
| 1777759519 | 12.22° C | 91% | 1011.9 hPa | 0 mm | - | - | - |
| 1777758935 | 12.22° C | 91% | 1012 hPa | 0 mm | - | - | - |
| 1777753539 | 13.33° C | 88% | 1012.4 hPa | 0 mm | - | - | - |
| 1777750519 | 14.44° C | 85% | 1012.3 hPa | 0 mm | - | - | - |
| 1777749334 | 14.44° C | 83% | 1012.3 hPa | 0 mm | - | - | - |
| 1777748718 | 14.44° C | 82% | 1012.4 hPa | 0 mm | - | - | - |
| 1777748120 | 14.44° C | 81% | 1012.5 hPa | 0 mm | - | - | - |
| 1777744533 | 15° C | 85% | 1012.4 hPa | 0 mm | - | - | - |
| 1777742739 | 14.44° C | 85% | 1012.6 hPa | 0 mm | - | - | - |
| 1777739718 | 13.89° C | 84% | 1013.3 hPa | 0.25 mm | - | - | - |
| 1777739159 | 13.33° C | 84% | 1013.2 hPa | 0.51 mm | - | - | - |
| 1777731935 | 17.78° C | 54% | 1015.1 hPa | 0 mm | - | - | - |
| 1777731322 | 17.78° C | 50% | 1015.1 hPa | 0 mm | - | - | - |
| 1777729536 | 17.78° C | 51% | 1015.5 hPa | 0 mm | - | - | - |
* Rain latest hour (hover to see other rain measurements)
** Current wind speed in m/s (hover to see current wind gust speed)